Terminal Aerodrome Forecast
Issued by NWS

Current Version | Previous Version | Graphics & Text | Print | Product List | Glossary On
Versions: 1 2 3 4 5 6 7 8 9 10 11 12 13 14 15 16 17 18 19 20
922
FTUS41 KPBZ 231720
TAFMGW
TAF
KMGW 231720Z 2318/2418 27006KT P6SM BKN025
     FM231900 30006KT P6SM VCTS BKN040CB
     FM232300 36003KT P6SM FEW250
     FM241000 00000KT 4SM HZ FEW250=

USA.gov is the U.S. government's official web portal to all federal, state and local government web resources and services.